Latest Weather Observations for Gladstone Airport

IDQ60801

Issued at 6:35 pm EST Wednesday 27 August 2014 (issued every 30 minutes, with the page automatically refreshed every 10 minutes)

About weather observations | Map of weather stations | Latest weather observations for QLD | Other Formats
Station Details ID: 039326 Name: GLADSTONE AIRPORT Lat: -23.87 Lon: 151.22 Height: 16.6 m
Data from the previous 72 hours. | See also: Recent months at Gladstone Airport
Date/Time
EST
Temp
°C
App
Temp
°C
Dew
Point
Rel
Hum
%
Delta-T
°C
Wind Press
QNH
hPa
Press
MSL
hPa
Rain
since 9 am
mm
Dir
 
Spd
km/h
Gust
km/h
Spd
kts
Gust
kts
27/06:30pm 19.9 16.8 -0.1 26 8.8 SW 6 9 3 5 1015.0 1015.0 0.0
27/06:00pm 21.2 17.4 -0.7 23 9.6 WSW 9 15 5 8 1014.5 1014.5 0.0
27/05:30pm 22.3 17.8 -0.4 22 10.1 WSW 13 22 7 12 1014.1 1014.1 0.0
27/05:00pm 23.3 18.3 -0.9 20 10.8 W 15 32 8 17 1013.7 1013.7 0.0
27/04:30pm 23.8 18.0 -1.2 19 11.1 W 19 30 10 16 1013.3 1013.3 0.0
27/04:00pm 24.0 18.4 -2.5 17 11.5 WSW 17 33 9 18 1013.0 1013.0 0.0
27/03:30pm 24.3 18.4 -2.3 17 11.7 W 19 32 10 17 1012.9 1012.9 0.0
27/03:00pm 24.8 19.9 -0.4 19 11.5 WSW 15 28 8 15 1012.7 1012.7 0.0
27/02:30pm 25.0 19.5 0.5 20 11.4 WNW 19 32 10 17 1012.8 1012.8 0.0
27/02:00pm 25.0 19.7 1.8 22 11.0 W 19 28 10 15 1013.1 1013.1 0.0
27/01:30pm 25.0 20.3 3.0 24 10.7 WNW 17 28 9 15 1013.5 1013.5 0.0
27/01:00pm 24.3 19.8 4.1 27 10.0 W 17 30 9 16 1013.8 1013.8 0.0
27/12:30pm 23.8 20.6 5.2 30 9.3 W 11 20 6 11 1014.3 1014.3 0.0
27/12:00pm 22.9 19.9 5.8 33 8.6 W 11 20 6 11 1014.9 1014.9 0.0
27/11:30am 22.9 19.6 6.6 35 8.4 WNW 13 22 7 12 1015.4 1015.4 0.0
27/11:00am 21.5 18.5 7.7 41 7.2 WNW 13 20 7 11 1016.0 1016.0 0.0
27/10:30am 20.7 18.9 9.3 48 6.1 WNW 9 15 5 8 1016.4 1016.4 0.0
27/10:00am 19.8 18.4 9.7 52 5.4 SW 7 11 4 6 1016.7 1016.7 0.0
27/09:30am 18.2 15.1 9.0 55 4.8 WSW 15 22 8 12 1017.1 1017.1 0.0
27/09:00am 17.7 14.5 8.3 54 4.8 SW 15 20 8 11 1016.9 1016.9 0.0
27/08:30am 17.4 15.3 9.6 60 4.1 SW 11 19 6 10 1016.8 1016.8 0.0
27/08:00am 16.5 15.8 11.4 72 2.8 SW 6 11 3 6 1016.4 1016.4 0.0
27/07:30am 14.6 13.9 11.9 84 1.5 SW 7 11 4 6 1016.2 1016.2 0.0
27/07:00am 13.1 13.5 11.3 89 1.0 CALM 0 0 0 0 1016.1 1016.1 0.0
27/06:30am 12.5 11.7 11.1 91 0.7 SSW 6 7 3 4 1016.0 1016.0 0.0
27/06:00am 12.7 11.4 11.3 91 0.7 SW 9 13 5 7 1015.9 1015.9 0.0
27/05:30am 12.9 11.6 11.3 90 0.8 SSW 9 13 5 7 1015.5 1015.5 0.0
27/05:00am 13.5 12.4 12.1 91 0.8 SW 9 17 5 9 1015.2 1015.2 0.0
27/04:30am 13.5 13.0 11.9 90 0.9 SSW 6 9 3 5 1015.1 1015.1 0.0
27/04:00am 13.8 13.2 12.4 91 0.8 SW 7 11 4 6 1015.2 1015.2 0.0
27/03:30am 13.7 13.3 12.3 91 0.8 S 6 9 3 5 1015.4 1015.4 0.0
27/03:00am 13.3 11.8 11.9 91 0.7 SSW 11 15 6 8 1015.5 1015.5 0.0
27/02:30am 13.2 11.2 11.6 90 0.9 SSW 13 19 7 10 1015.6 1015.6 0.0
27/02:00am 14.2 12.9 12.6 90 0.9 SW 11 15 6 8 1015.7 1015.7 0.0
27/01:30am 14.1 14.5 12.5 90 0.9 S 2 7 1 4 1016.0 1016.0 0.0
27/01:00am 14.1 14.8 12.1 88 1.1 CALM 0 0 0 0 1016.4 1016.4 0.0
27/12:30am 14.1 14.8 12.1 88 1.1 CALM 0 0 0 0 1016.5 1016.5 0.0
27/12:00am 14.4 15.1 12.1 86 1.2 SSW 0 0 0 0 1016.6 1016.6 0.0
 
Date/Time
EST
Temp
°C
App
Temp
°C
Dew
Point
Rel
Hum
%
Delta-T
°C
Wind Press
QNH
hPa
Press
MSL
hPa
Rain
since 9 am
mm
Dir
 
Spd
km/h
Gust
km/h
Spd
kts
Gust
kts
26/11:30pm 14.7 15.4 12.2 85 1.4 CALM 0 0 0 0 1016.7 1016.7 0.0
26/11:00pm 15.0 15.7 12.3 84 1.5 CALM 0 0 0 0 1016.9 1016.9 0.0
26/10:30pm 15.3 15.0 12.6 84 1.5 S 6 7 3 4 1017.0 1017.0 0.0
26/10:00pm 15.6 15.3 12.7 83 1.6 S 6 7 3 4 1017.1 1017.1 0.0
26/09:30pm 16.4 16.6 12.9 80 1.9 S 4 15 2 8 1017.0 1017.0 0.0
26/09:00pm 16.5 16.2 12.8 79 2.0 S 6 9 3 5 1016.9 1016.9 0.0
26/08:30pm 16.8 17.6 12.5 76 2.4 CALM 0 0 0 0 1016.7 1016.7 0.0
26/08:00pm 17.6 18.4 12.7 73 2.7 CALM 0 6 0 3 1016.5 1016.5 0.0
26/07:30pm 18.6 19.5 13.0 70 3.2 CALM 0 0 0 0 1016.1 1016.1 0.0
26/07:00pm 19.3 19.0 13.2 68 3.5 NNE 7 11 4 6 1015.8 1015.8 0.0
26/06:30pm 19.6 18.7 12.6 64 3.9 NE 9 13 5 7 1015.3 1015.3 0.0
26/06:00pm 19.9 18.6 13.8 68 3.5 NE 13 19 7 10 1015.0 1015.0 0.0
26/05:30pm 20.6 18.8 13.3 63 4.2 ENE 15 19 8 10 1014.5 1014.5 0.0
26/05:00pm 21.4 18.8 12.0 55 5.3 NE 17 22 9 12 1014.4 1014.4 0.0
26/04:30pm 22.5 19.3 11.3 49 6.2 NE 19 24 10 13 1014.2 1014.2 0.0
26/04:00pm 22.9 19.6 11.0 47 6.6 NNE 19 24 10 13 1014.0 1014.0 0.0
26/03:30pm 23.6 20.3 11.6 47 6.8 NNE 20 24 11 13 1013.9 1013.9 0.0
26/03:00pm 23.1 19.4 11.5 48 6.5 NNE 22 30 12 16 1014.0 1014.0 0.0
26/02:30pm 23.3 19.7 12.9 52 6.0 NE 24 30 13 16 1014.1 1014.1 0.0
26/02:00pm 22.7 20.0 11.7 49 6.2 NE 17 22 9 12 1014.4 1014.4 0.0
26/01:30pm 24.6 23.2 12.2 46 7.1 NE 11 19 6 10 1014.6 1014.6 0.0
26/01:00pm 23.3 21.3 11.4 47 6.7 NE 13 19 7 10 1015.1 1015.1 0.0
26/12:30pm 23.0 19.9 11.7 49 6.4 NE 19 24 10 13 1015.6 1015.6 0.0
26/12:00pm 23.0 20.5 12.3 51 6.1 NNE 17 22 9 12 1016.1 1016.1 0.0
26/11:30am 23.7 22.6 10.7 44 7.2 NW 7 13 4 7 1016.7 1016.7 0.0
26/11:00am 22.9 22.3 12.2 51 6.1 WNW 7 17 4 9 1017.4 1017.4 0.0
26/10:30am 21.5 20.7 11.8 54 5.4 SW 7 11 4 6 1017.9 1017.9 0.0
26/10:00am 20.6 19.6 12.3 59 4.7 WSW 9 17 5 9 1018.4 1018.4 0.0
26/09:30am 19.7 18.9 12.9 65 3.8 SW 9 13 5 7 1018.6 1018.6 0.0
26/09:00am 18.0 17.3 13.3 74 2.6 SW 9 13 5 7 1018.7 1018.7 0.0
26/08:30am 16.7 16.0 13.2 80 2.0 SSW 9 13 5 7 1018.5 1018.5 0.0
26/08:00am 15.1 13.8 12.6 85 1.4 SSW 11 15 6 8 1018.4 1018.4 0.0
26/07:30am 13.9 12.5 12.1 89 1.0 SSW 11 13 6 7 1018.2 1018.2 0.0
26/07:00am 12.7 11.4 11.3 91 0.7 SSW 9 15 5 8 1017.8 1017.8 0.0
26/06:30am 12.5 11.6 11.4 93 0.6 SW 7 11 4 6 1017.7 1017.7 0.0
26/06:00am 12.7 11.6 11.8 94 0.5 SSW 9 13 5 7 1017.5 1017.5 0.0
26/05:30am 12.9 11.8 11.8 93 0.6 SSW 9 13 5 7 1017.3 1017.3 0.0
26/05:00am 13.4 13.4 12.3 93 0.6 SSW 4 7 2 4 1017.0 1017.0 0.0
26/04:30am 13.6 12.7 12.5 93 0.6 SW 9 9 5 5 1016.8 1016.8 0.0
26/04:00am 13.6 12.7 12.5 93 0.6 SSW 9 11 5 6 1017.0 1017.0 0.0
26/03:30am 13.5 13.7 11.9 90 0.9 SSW 2 7 1 4 1017.3 1017.3 0.0
26/03:00am 14.1 13.8 12.8 92 0.7 SSW 6 9 3 5 1017.4 1017.4 0.0
26/02:30am 14.1 14.2 12.7 91 0.8 S 4 7 2 4 1017.7 1017.7 0.0
26/02:00am 14.6 13.9 13.3 92 0.7 SW 9 11 5 6 1017.9 1017.9 0.0
26/01:30am 14.3 15.1 12.5 89 1.0 CALM 0 0 0 0 1017.9 1017.9 0.0
26/01:00am 14.7 15.5 12.7 88 1.1 CALM 0 0 0 0 1018.2 1018.2 0.0
26/12:30am 15.1 16.1 13.1 88 1.1 CALM 0 0 0 0 1018.5 1018.5 0.0
26/12:00am 15.5 16.5 13.2 86 1.3 CALM 0 0 0 0 1018.7 1018.7 0.0
 
Date/Time
EST
Temp
°C
App
Temp
°C
Dew
Point
Rel
Hum
%
Delta-T
°C
Wind Press
QNH
hPa
Press
MSL
hPa
Rain
since 9 am
mm
Dir
 
Spd
km/h
Gust
km/h
Spd
kts
Gust
kts
25/11:30pm 16.0 17.2 13.8 87 1.2 CALM 0 0 0 0 1018.7 1018.7 0.0
25/11:00pm 16.2 17.3 13.5 84 1.5 CALM 0 0 0 0 1018.8 1018.8 0.0
25/10:30pm 16.6 17.3 13.5 82 1.7 SSW 2 6 1 3 1018.9 1018.9 0.0
25/10:00pm 17.1 17.2 13.8 81 1.9 S 6 7 3 4 1018.9 1018.9 0.0
25/09:30pm 17.5 18.8 14.0 80 2.0 CALM 0 0 0 0 1019.0 1019.0 0.0
25/09:00pm 18.6 19.0 14.7 78 2.3 SSE 6 7 3 4 1019.0 1019.0 0.0
25/08:30pm 19.1 19.0 15.0 77 2.4 ESE 9 13 5 7 1018.8 1018.8 0.0
25/08:00pm 19.1 19.5 15.4 79 2.2 NE 7 9 4 5 1018.8 1018.8 0.0
25/07:30pm 19.2 19.7 14.9 76 2.5 ESE 6 9 3 5 1018.6 1018.6 0.0
25/07:00pm 19.6 19.8 14.8 74 2.8 E 7 11 4 6 1018.1 1018.1 0.0
25/06:30pm 19.6 19.8 14.8 74 2.8 ENE 7 9 4 5 1017.8 1017.8 0.0
25/06:00pm 20.0 19.5 14.8 72 3.0 ENE 11 15 6 8 1017.6 1017.6 0.0
25/05:30pm 20.5 19.4 14.4 68 3.6 ENE 13 19 7 10 1017.3 1017.3 0.0
25/05:00pm 21.5 20.0 14.2 63 4.3 E 15 20 8 11 1017.0 1017.0 0.0
25/04:30pm 21.8 19.6 13.4 59 4.8 ENE 17 22 9 12 1016.8 1016.8 0.0
25/04:00pm 22.1 20.1 14.0 60 4.7 NE 17 22 9 12 1016.6 1016.6 0.0
25/03:30pm 22.4 19.7 12.9 55 5.4 NE 19 24 10 13 1016.5 1016.5 0.0
25/03:00pm 23.7 21.6 13.6 53 5.9 NE 17 22 9 12 1016.4 1016.4 0.0
25/02:30pm 26.2 23.6 9.5 35 9.2 SSE 13 20 7 11 1016.5 1016.5 0.0
25/02:00pm 25.7 23.5 9.5 36 8.9 S 11 20 6 11 1016.5 1016.5 0.0
25/01:30pm 25.2 22.2 7.8 33 9.2 S 13 26 7 14 1016.8 1016.8 0.0
25/01:00pm 25.3 21.8 7.4 32 9.4 S 15 30 8 16 1017.2 1017.2 0.0
25/12:30pm 24.9 20.9 6.6 31 9.5 S 17 32 9 17 1017.7 1017.7 0.0
25/12:00pm 24.4 20.0 7.5 34 8.9 S 20 35 11 19 1018.3 1018.3 0.0
25/11:30am 23.8 19.1 7.8 36 8.4 S 22 37 12 20 1018.8 1018.8 0.0
25/11:00am 23.2 18.8 7.3 36 8.3 S 20 30 11 16 1019.5 1019.5 0.0
25/10:30am 22.5 18.5 8.2 40 7.5 S 19 30 10 16 1019.9 1019.9 0.0
25/10:00am 21.3 18.7 9.2 46 6.4 S 13 20 7 11 1020.4 1020.4 0.0
25/09:30am 20.3 17.7 9.5 50 5.8 S 13 24 7 13 1020.6 1020.6 0.0
25/09:00am 18.9 16.8 9.7 55 4.9 SW 11 19 6 10 1020.8 1020.8 0.0
25/08:30am 18.2 16.0 9.5 57 4.6 SW 11 20 6 11 1020.8 1020.8 0.0
25/08:00am 17.5 16.1 10.9 65 3.5 SW 9 17 5 9 1020.6 1020.6 0.0
25/07:30am 16.0 14.0 10.3 69 3.0 SSW 11 17 6 9 1020.4 1020.4 0.0
25/07:00am 14.5 13.0 10.5 77 2.1 SSW 9 19 5 10 1020.2 1020.2 0.0
25/06:30am 13.5 12.0 10.5 82 1.6 SW 9 13 5 7 1020.0 1020.0 0.0
25/06:00am 13.2 12.1 10.7 85 1.3 SSW 7 11 4 6 1019.7 1019.7 0.0
25/05:30am 13.5 12.5 11.0 85 1.3 S 7 9 4 5 1019.5 1019.5 0.0
25/05:00am 13.8 12.5 11.3 85 1.3 SW 9 13 5 7 1019.2 1019.2 0.0
25/04:30am 13.7 12.9 11.7 88 1.1 SW 7 9 4 5 1019.0 1019.0 0.0
25/04:00am 13.5 12.7 11.7 89 1.0 SSW 7 11 4 6 1019.0 1019.0 0.0
25/03:30am 13.5 12.9 11.6 88 1.0 SSW 6 7 3 4 1019.1 1019.1 0.0
25/03:00am 13.9 13.3 11.8 87 1.1 SSW 6 6 3 3 1019.1 1019.1 0.0
25/02:30am 14.2 14.7 11.5 84 1.4 CALM 0 0 0 0 1019.3 1019.3 0.0
25/02:00am 14.9 14.2 11.9 82 1.6 SSW 7 9 4 5 1019.4 1019.4 0.0
25/01:30am 15.3 14.6 12.1 81 1.7 S 7 9 4 5 1019.7 1019.7 0.0
25/01:00am 15.8 15.2 12.4 80 1.9 S 7 9 4 5 1020.1 1020.1 0.0
25/12:30am 16.2 15.2 12.4 78 2.1 S 9 13 5 7 1020.4 1020.4 0.0
25/12:00am 16.3 15.4 12.5 78 2.1 S 9 11 5 6 1020.5 1020.5 0.0
 
Date/Time
EST
Temp
°C
App
Temp
°C
Dew
Point
Rel
Hum
%
Delta-T
°C
Wind Press
QNH
hPa
Press
MSL
hPa
Rain
since 9 am
mm
Dir
 
Spd
km/h
Gust
km/h
Spd
kts
Gust
kts
24/11:30pm 16.4 15.4 12.4 77 2.2 SSW 9 13 5 7 1020.4 1020.4 0.0
24/11:00pm 16.2 15.7 12.2 77 2.2 SSW 6 7 3 4 1020.6 1020.6 0.0
24/10:30pm 16.9 16.3 12.2 74 2.6 SSW 7 9 4 5 1020.9 1020.9 0.0
24/10:00pm 17.5 17.1 12.4 72 2.8 S 6 7 3 4 1020.9 1020.9 0.0
24/09:30pm 18.1 17.6 12.5 70 3.1 S 7 9 4 5 1020.9 1020.9 0.0
24/09:00pm 18.4 17.8 12.2 67 3.4 SSW 7 9 4 5 1021.0 1021.0 0.0
24/08:30pm 19.2 18.3 12.5 65 3.7 S 9 13 5 7 1020.9 1020.9 0.0
24/08:00pm 19.9 18.5 12.2 61 4.3 S 11 17 6 9 1020.9 1020.9 0.0
24/07:30pm 20.5 19.1 12.2 59 4.7 SSE 11 24 6 13 1020.7 1020.7 0.0
24/07:00pm 20.8 19.0 12.2 58 4.8 S 13 20 7 11 1020.2 1020.2 0.0

Other Formats:

Comma delimited format used in spreadsheet applications
http://www.bom.gov.au/fwo/IDQ60801/IDQ60801.94381.axf

JavaScript Object Notation format (JSON) in row-major order
http://www.bom.gov.au/fwo/IDQ60801/IDQ60801.94381.json